CFBMR KMSP-KPIE
Flight info
| Callsign | CFBMR |
|---|---|
| Flight time | 2h 20m |
| Altitude | 39000 |
| Route | RST1 ALO STL J151 GETME VLKNN MGMRY ACORI BANGZ2 |
| Aircraft | C750/M-SBDE3FGHRWXY/S |
Departure
| Time | 2026-05-04 17:39 |
|---|---|
| Airport | Minneapolis–Saint Paul International Airport / Wold–Chamberlain Field (KMSP) |
Arrival
| Time | 2026-05-04 19:59 |
|---|---|
| Airport | St. Petersburg Clearwater International Airport (KPIE) |
| Time | Latitude | Longitude | Altitude | Speed | Heading |
|---|---|---|---|---|---|
| 2026-05-04 17:20 | 44.87756 | -93.21762 | 821 ft | 0 kts | 270° |
| 2026-05-04 17:34 | 44.87791 | -93.21796 | 821 ft | 2 kts | 19° |
| 2026-05-04 17:34 | 44.87791 | -93.21765 | 821 ft | 7 kts | 97° |
| 2026-05-04 17:35 | 44.87777 | -93.21574 | 821 ft | 9 kts | 47° |
| 2026-05-04 17:35 | 44.87780 | -93.21407 | 821 ft | 15 kts | 126° |
| 2026-05-04 17:35 | 44.87716 | -93.21259 | 821 ft | 19 kts | 121° |
| 2026-05-04 17:36 | 44.87645 | -93.21109 | 822 ft | 17 kts | 116° |
| 2026-05-04 17:36 | 44.87586 | -93.20972 | 822 ft | 15 kts | 120° |
| 2026-05-04 17:36 | 44.87532 | -93.20853 | 821 ft | 13 kts | 117° |
| 2026-05-04 17:36 | 44.87489 | -93.20738 | 821 ft | 14 kts | 127° |
| 2026-05-04 17:37 | 44.87402 | -93.20646 | 821 ft | 17 kts | 143° |
| 2026-05-04 17:37 | 44.87325 | -93.20504 | 821 ft | 19 kts | 119° |
| 2026-05-04 17:37 | 44.87251 | -93.20333 | 822 ft | 17 kts | 119° |
| 2026-05-04 17:37 | 44.87269 | -93.20210 | 822 ft | 13 kts | 33° |
| 2026-05-04 17:38 | 44.87343 | -93.20150 | 823 ft | 11 kts | 18° |
| 2026-05-04 17:38 | 44.87389 | -93.20208 | 823 ft | 20 kts | 299° |
| 2026-05-04 17:38 | 44.87647 | -93.20803 | 823 ft | 113 kts | 301° |
| 2026-05-04 17:38 | 44.88088 | -93.21792 | 1307 ft | 122 kts | 300° |
| 2026-05-04 17:39 | 44.89115 | -93.24097 | 2488 ft | 160 kts | 301° |
| 2026-05-04 17:39 | 44.89740 | -93.25524 | 2961 ft | 186 kts | 301° |
| 2026-05-04 17:39 | 44.90162 | -93.27390 | 3301 ft | 219 kts | 270° |
| 2026-05-04 17:40 | 44.89509 | -93.29450 | 3714 ft | 255 kts | 230° |
| 2026-05-04 17:40 | 44.87886 | -93.30530 | 4704 ft | 271 kts | 193° |
| 2026-05-04 17:40 | 44.85946 | -93.30268 | 5623 ft | 283 kts | 174° |
| 2026-05-04 17:40 | 44.84040 | -93.29516 | 6393 ft | 294 kts | 168° |
| 2026-05-04 17:41 | 44.82093 | -93.28508 | 7305 ft | 300 kts | 165° |
| 2026-05-04 17:41 | 44.80150 | -93.27374 | 8284 ft | 304 kts | 166° |
| 2026-05-04 17:41 | 44.78173 | -93.26287 | 9291 ft | 306 kts | 169° |
| 2026-05-04 17:41 | 44.76159 | -93.25233 | 10139 ft | 310 kts | 170° |
| 2026-05-04 17:42 | 44.74082 | -93.24137 | 10500 ft | 330 kts | 169° |
| 2026-05-04 17:42 | 44.71861 | -93.22942 | 10748 ft | 352 kts | 168° |
| 2026-05-04 17:42 | 44.69518 | -93.21665 | 11035 ft | 366 kts | 168° |
| 2026-05-04 17:42 | 44.67124 | -93.20363 | 11560 ft | 373 kts | 168° |
| 2026-05-04 17:43 | 44.64671 | -93.19055 | 12077 ft | 381 kts | 168° |
| 2026-05-04 17:43 | 44.62203 | -93.17620 | 12699 ft | 389 kts | 163° |
| 2026-05-04 17:43 | 44.59771 | -93.15888 | 13395 ft | 393 kts | 161° |
| 2026-05-04 17:43 | 44.57320 | -93.14139 | 13980 ft | 396 kts | 162° |
| 2026-05-04 17:44 | 44.54852 | -93.12428 | 14585 ft | 397 kts | 162° |
| 2026-05-04 17:44 | 44.52363 | -93.10708 | 15189 ft | 399 kts | 162° |
| 2026-05-04 17:44 | 44.49867 | -93.08960 | 15807 ft | 402 kts | 161° |
| 2026-05-04 17:44 | 44.47396 | -93.07227 | 16430 ft | 404 kts | 161° |
| 2026-05-04 17:45 | 44.44870 | -93.05471 | 17065 ft | 407 kts | 161° |
| 2026-05-04 17:45 | 44.42329 | -93.03709 | 17748 ft | 408 kts | 161° |
| 2026-05-04 17:45 | 44.39776 | -93.01931 | 18374 ft | 411 kts | 161° |
| 2026-05-04 17:45 | 44.37202 | -93.00143 | 18879 ft | 415 kts | 161° |
| 2026-05-04 17:46 | 44.34599 | -92.98339 | 19419 ft | 420 kts | 161° |
| 2026-05-04 17:46 | 44.31971 | -92.96516 | 19991 ft | 424 kts | 161° |
| 2026-05-04 17:46 | 44.29315 | -92.94676 | 20573 ft | 428 kts | 161° |
| 2026-05-04 17:46 | 44.26637 | -92.92824 | 21135 ft | 432 kts | 161° |
| 2026-05-04 17:47 | 44.23931 | -92.90954 | 21682 ft | 436 kts | 161° |
| 2026-05-04 17:47 | 44.21205 | -92.89070 | 22238 ft | 440 kts | 161° |
| 2026-05-04 17:47 | 44.18450 | -92.87168 | 22743 ft | 444 kts | 161° |
| 2026-05-04 17:47 | 44.15677 | -92.85254 | 23407 ft | 444 kts | 161° |
| 2026-05-04 17:48 | 44.12896 | -92.83339 | 23873 ft | 448 kts | 161° |
| 2026-05-04 17:48 | 44.10095 | -92.81416 | 24344 ft | 451 kts | 161° |
| 2026-05-04 17:48 | 44.07272 | -92.79478 | 24815 ft | 454 kts | 161° |
| 2026-05-04 17:48 | 44.04463 | -92.77551 | 25274 ft | 457 kts | 161° |
| 2026-05-04 17:49 | 44.01599 | -92.75588 | 25740 ft | 460 kts | 161° |
| 2026-05-04 17:49 | 43.98716 | -92.73617 | 26161 ft | 464 kts | 161° |
| 2026-05-04 17:49 | 43.95813 | -92.71631 | 26668 ft | 466 kts | 161° |
| 2026-05-04 17:49 | 43.92886 | -92.69631 | 27137 ft | 469 kts | 161° |
| 2026-05-04 17:50 | 43.89947 | -92.67628 | 27604 ft | 473 kts | 161° |
| 2026-05-04 17:50 | 43.86986 | -92.65611 | 28107 ft | 476 kts | 161° |
| 2026-05-04 17:50 | 43.84007 | -92.63582 | 28571 ft | 479 kts | 161° |
| 2026-05-04 17:50 | 43.80997 | -92.61568 | 29003 ft | 480 kts | 163° |
| 2026-05-04 17:51 | 43.77871 | -92.60035 | 29409 ft | 474 kts | 172° |
| 2026-05-04 17:51 | 43.74661 | -92.59102 | 29848 ft | 469 kts | 180° |
| 2026-05-04 17:51 | 43.71421 | -92.58578 | 30224 ft | 469 kts | 181° |
| 2026-05-04 17:51 | 43.68166 | -92.58044 | 30627 ft | 472 kts | 181° |
| 2026-05-04 17:52 | 43.64955 | -92.57495 | 31227 ft | 469 kts | 181° |
| 2026-05-04 17:52 | 43.61681 | -92.56953 | 31805 ft | 467 kts | 181° |
| 2026-05-04 17:52 | 43.58499 | -92.56447 | 32338 ft | 466 kts | 181° |
| 2026-05-04 17:52 | 43.55287 | -92.55925 | 32955 ft | 464 kts | 181° |
| 2026-05-04 17:53 | 43.52083 | -92.55393 | 33570 ft | 462 kts | 181° |
| 2026-05-04 17:53 | 43.48897 | -92.54870 | 34076 ft | 461 kts | 181° |
| 2026-05-04 17:53 | 43.45708 | -92.54357 | 34488 ft | 462 kts | 181° |
| 2026-05-04 17:53 | 43.42513 | -92.53840 | 34904 ft | 463 kts | 181° |
| 2026-05-04 17:54 | 43.39318 | -92.53316 | 35290 ft | 463 kts | 181° |
| 2026-05-04 17:54 | 43.36123 | -92.52792 | 35823 ft | 461 kts | 180° |
| 2026-05-04 17:54 | 43.32934 | -92.52277 | 36258 ft | 462 kts | 180° |
| 2026-05-04 17:54 | 43.29739 | -92.51762 | 36683 ft | 463 kts | 180° |
| 2026-05-04 17:55 | 43.26536 | -92.51243 | 37117 ft | 464 kts | 180° |
| 2026-05-04 17:55 | 43.23323 | -92.50720 | 37554 ft | 465 kts | 180° |
| 2026-05-04 17:55 | 43.20110 | -92.50201 | 37961 ft | 465 kts | 180° |
| 2026-05-04 17:55 | 43.16891 | -92.49682 | 38393 ft | 465 kts | 180° |
| 2026-05-04 17:56 | 43.13664 | -92.49162 | 38613 ft | 469 kts | 180° |
| 2026-05-04 17:56 | 43.10423 | -92.48645 | 38608 ft | 479 kts | 180° |
| 2026-05-04 17:56 | 43.03677 | -92.47556 | 38626 ft | 497 kts | 180° |
| 2026-05-04 17:57 | 42.96695 | -92.46435 | 38619 ft | 513 kts | 180° |
| 2026-05-04 17:57 | 42.89506 | -92.45283 | 38618 ft | 527 kts | 179° |
| 2026-05-04 17:58 | 42.82140 | -92.44103 | 38610 ft | 534 kts | 179° |
| 2026-05-04 17:58 | 42.74743 | -92.42923 | 38613 ft | 536 kts | 179° |
| 2026-05-04 17:59 | 42.67381 | -92.41753 | 38613 ft | 536 kts | 179° |
| 2026-05-04 18:00 | 42.56275 | -92.39793 | 38595 ft | 543 kts | 173° |
| 2026-05-04 18:00 | 42.49072 | -92.36356 | 38595 ft | 553 kts | 162° |
| 2026-05-04 18:01 | 42.41983 | -92.32311 | 38608 ft | 551 kts | 164° |
| 2026-05-04 18:01 | 42.34835 | -92.28521 | 38604 ft | 553 kts | 163° |
| 2026-05-04 18:02 | 42.24138 | -92.22623 | 38620 ft | 552 kts | 163° |
| 2026-05-04 18:02 | 42.17046 | -92.18769 | 38594 ft | 553 kts | 162° |
| 2026-05-04 18:03 | 42.09912 | -92.14882 | 38606 ft | 552 kts | 163° |
| 2026-05-04 18:03 | 42.02774 | -92.11028 | 38612 ft | 553 kts | 163° |
| 2026-05-04 18:04 | 41.95638 | -92.07159 | 38597 ft | 552 kts | 163° |
| 2026-05-04 18:05 | 41.84954 | -92.01406 | 38612 ft | 551 kts | 163° |
| 2026-05-04 18:05 | 41.77835 | -91.97586 | 38615 ft | 551 kts | 163° |
| 2026-05-04 18:06 | 41.67250 | -91.91908 | 38615 ft | 534 kts | 163° |
| 2026-05-04 18:06 | 41.60327 | -91.88224 | 38617 ft | 535 kts | 163° |
| 2026-05-04 18:07 | 41.53419 | -91.84537 | 38623 ft | 541 kts | 163° |
| 2026-05-04 18:07 | 41.46399 | -91.80809 | 38640 ft | 544 kts | 163° |
| 2026-05-04 18:08 | 41.39350 | -91.77069 | 38638 ft | 545 kts | 163° |
| 2026-05-04 18:08 | 41.32299 | -91.73340 | 38624 ft | 545 kts | 163° |
| 2026-05-04 18:09 | 41.18194 | -91.65902 | 38634 ft | 545 kts | 163° |
| 2026-05-04 18:10 | 41.11181 | -91.62218 | 38620 ft | 545 kts | 162° |
| 2026-05-04 18:10 | 41.04111 | -91.58512 | 38650 ft | 546 kts | 162° |
| 2026-05-04 18:11 | 40.97042 | -91.54816 | 38650 ft | 546 kts | 163° |
| 2026-05-04 18:11 | 40.89969 | -91.51125 | 38648 ft | 545 kts | 162° |
| 2026-05-04 18:12 | 40.82905 | -91.47449 | 38653 ft | 547 kts | 162° |
| 2026-05-04 18:12 | 40.75822 | -91.43769 | 38661 ft | 546 kts | 162° |
| 2026-05-04 18:13 | 40.68746 | -91.40103 | 38658 ft | 546 kts | 162° |
| 2026-05-04 18:14 | 40.58129 | -91.34618 | 38660 ft | 546 kts | 162° |
| 2026-05-04 18:14 | 40.51045 | -91.30968 | 38670 ft | 546 kts | 162° |
| 2026-05-04 18:15 | 40.36907 | -91.23708 | 38672 ft | 548 kts | 162° |
| 2026-05-04 18:16 | 40.29793 | -91.20069 | 38673 ft | 548 kts | 163° |
| 2026-05-04 18:16 | 40.22689 | -91.16441 | 38673 ft | 549 kts | 163° |
| 2026-05-04 18:17 | 40.11989 | -91.10993 | 38684 ft | 550 kts | 162° |
| 2026-05-04 18:18 | 40.01290 | -91.05565 | 38688 ft | 550 kts | 162° |
| 2026-05-04 18:18 | 39.94126 | -91.01941 | 38696 ft | 552 kts | 162° |
| 2026-05-04 18:19 | 39.83426 | -90.96542 | 38876 ft | 552 kts | 162° |
| 2026-05-04 18:19 | 39.76258 | -90.92935 | 38728 ft | 554 kts | 163° |
| 2026-05-04 18:20 | 39.69065 | -90.89324 | 38741 ft | 554 kts | 162° |
| 2026-05-04 18:20 | 39.63089 | -90.86330 | 38743 ft | 554 kts | 163° |
| 2026-05-04 18:21 | 39.55903 | -90.82738 | 38740 ft | 554 kts | 163° |
| 2026-05-04 18:21 | 39.48683 | -90.79136 | 38736 ft | 555 kts | 163° |
| 2026-05-04 18:22 | 39.41499 | -90.75560 | 38743 ft | 555 kts | 163° |
| 2026-05-04 18:22 | 39.34295 | -90.71982 | 38700 ft | 554 kts | 163° |
| 2026-05-04 18:23 | 39.27077 | -90.68406 | 38720 ft | 557 kts | 163° |
| 2026-05-04 18:23 | 39.19833 | -90.64823 | 38730 ft | 556 kts | 163° |
| 2026-05-04 18:24 | 39.12592 | -90.61252 | 38741 ft | 557 kts | 163° |
| 2026-05-04 18:24 | 39.05342 | -90.57682 | 38754 ft | 558 kts | 163° |
| 2026-05-04 18:25 | 38.98132 | -90.54142 | 38755 ft | 558 kts | 163° |
| 2026-05-04 18:25 | 38.90884 | -90.50588 | 38752 ft | 557 kts | 163° |
| 2026-05-04 18:26 | 38.83534 | -90.47595 | 38743 ft | 552 kts | 173° |
| 2026-05-04 18:26 | 38.75968 | -90.46145 | 38763 ft | 549 kts | 176° |
| 2026-05-04 18:27 | 38.68403 | -90.44461 | 38767 ft | 551 kts | 174° |
| 2026-05-04 18:27 | 38.60837 | -90.42898 | 38768 ft | 552 kts | 176° |
| 2026-05-04 18:28 | 38.53238 | -90.41286 | 38790 ft | 553 kts | 175° |
| 2026-05-04 18:28 | 38.45695 | -90.39693 | 38796 ft | 552 kts | 176° |
| 2026-05-04 18:29 | 38.38099 | -90.38110 | 38790 ft | 553 kts | 175° |
| 2026-05-04 18:29 | 38.30542 | -90.36511 | 38798 ft | 550 kts | 175° |
| 2026-05-04 18:30 | 38.19199 | -90.34143 | 38802 ft | 551 kts | 175° |
| 2026-05-04 18:31 | 38.11630 | -90.32575 | 38810 ft | 551 kts | 175° |
| 2026-05-04 18:31 | 38.04110 | -90.31005 | 38816 ft | 550 kts | 175° |
| 2026-05-04 18:32 | 37.96558 | -90.29441 | 38828 ft | 550 kts | 175° |
| 2026-05-04 18:32 | 37.88990 | -90.27872 | 38830 ft | 551 kts | 175° |
| 2026-05-04 18:33 | 37.81421 | -90.26306 | 38831 ft | 551 kts | 175° |
| 2026-05-04 18:33 | 37.73857 | -90.24746 | 38831 ft | 551 kts | 175° |
| 2026-05-04 18:34 | 37.66422 | -90.22107 | 38823 ft | 564 kts | 161° |
| 2026-05-04 18:34 | 37.59630 | -90.17031 | 38837 ft | 572 kts | 147° |
| 2026-05-04 18:35 | 37.53373 | -90.10922 | 38851 ft | 572 kts | 145° |
| 2026-05-04 18:35 | 37.46819 | -90.05283 | 38826 ft | 570 kts | 151° |
| 2026-05-04 18:36 | 37.40276 | -89.99532 | 38849 ft | 576 kts | 147° |
| 2026-05-04 18:36 | 37.33762 | -89.93754 | 38854 ft | 569 kts | 150° |
| 2026-05-04 18:37 | 37.27214 | -89.88101 | 38858 ft | 572 kts | 147° |
| 2026-05-04 18:37 | 37.20709 | -89.82333 | 38865 ft | 573 kts | 149° |
| 2026-05-04 18:38 | 37.14163 | -89.76697 | 38865 ft | 575 kts | 148° |
| 2026-05-04 18:38 | 37.07613 | -89.70936 | 38865 ft | 574 kts | 149° |
| 2026-05-04 18:39 | 37.01018 | -89.65257 | 38871 ft | 574 kts | 149° |
| 2026-05-04 18:39 | 36.94449 | -89.59529 | 38874 ft | 577 kts | 149° |
| 2026-05-04 18:40 | 36.87838 | -89.53839 | 38874 ft | 577 kts | 149° |
| 2026-05-04 18:40 | 36.81238 | -89.48124 | 38873 ft | 577 kts | 149° |
| 2026-05-04 18:41 | 36.74677 | -89.42487 | 38875 ft | 577 kts | 149° |
| 2026-05-04 18:41 | 36.68050 | -89.36784 | 38885 ft | 580 kts | 149° |
| 2026-05-04 18:42 | 36.61410 | -89.31095 | 38892 ft | 579 kts | 149° |
| 2026-05-04 18:42 | 36.54754 | -89.25397 | 38903 ft | 580 kts | 149° |
| 2026-05-04 18:43 | 36.48130 | -89.19740 | 38903 ft | 574 kts | 149° |
| 2026-05-04 18:43 | 36.41553 | -89.14139 | 38910 ft | 577 kts | 149° |
| 2026-05-04 18:44 | 36.34917 | -89.08494 | 38913 ft | 577 kts | 149° |
| 2026-05-04 18:44 | 36.28284 | -89.02867 | 38903 ft | 577 kts | 149° |
| 2026-05-04 18:45 | 36.21654 | -88.97246 | 38910 ft | 579 kts | 149° |
| 2026-05-04 18:45 | 36.14981 | -88.91605 | 38920 ft | 581 kts | 149° |
| 2026-05-04 18:46 | 36.08285 | -88.85952 | 38927 ft | 582 kts | 149° |
| 2026-05-04 18:46 | 36.01680 | -88.80388 | 38948 ft | 575 kts | 149° |
| 2026-05-04 18:47 | 35.95055 | -88.74824 | 38950 ft | 576 kts | 149° |
| 2026-05-04 18:47 | 35.88418 | -88.69254 | 38954 ft | 577 kts | 149° |
| 2026-05-04 18:48 | 35.81782 | -88.63702 | 38966 ft | 577 kts | 149° |
| 2026-05-04 18:48 | 35.75144 | -88.58156 | 38972 ft | 577 kts | 149° |
| 2026-05-04 18:49 | 35.68475 | -88.52600 | 38966 ft | 580 kts | 149° |
| 2026-05-04 18:49 | 35.61786 | -88.47033 | 38976 ft | 580 kts | 149° |
| 2026-05-04 18:50 | 35.55140 | -88.41516 | 38982 ft | 574 kts | 149° |
| 2026-05-04 18:50 | 35.48507 | -88.36031 | 38954 ft | 575 kts | 149° |
| 2026-05-04 18:51 | 35.41888 | -88.30565 | 38975 ft | 578 kts | 149° |
| 2026-05-04 18:51 | 35.35221 | -88.25070 | 38970 ft | 578 kts | 150° |
| 2026-05-04 18:52 | 35.28539 | -88.19575 | 38969 ft | 578 kts | 150° |
| 2026-05-04 18:52 | 35.21856 | -88.14089 | 38955 ft | 578 kts | 150° |
| 2026-05-04 18:53 | 35.15151 | -88.08599 | 38993 ft | 581 kts | 150° |
| 2026-05-04 18:53 | 35.08487 | -88.03146 | 38993 ft | 574 kts | 150° |
| 2026-05-04 18:54 | 35.01827 | -87.97720 | 38996 ft | 576 kts | 150° |
| 2026-05-04 18:54 | 34.95206 | -87.92323 | 38992 ft | 577 kts | 150° |
| 2026-05-04 18:55 | 34.88496 | -87.86875 | 39012 ft | 579 kts | 150° |
| 2026-05-04 18:55 | 34.78432 | -87.78716 | 39021 ft | 579 kts | 150° |
| 2026-05-04 18:56 | 34.71713 | -87.73283 | 39021 ft | 579 kts | 150° |
| 2026-05-04 18:56 | 34.64985 | -87.67853 | 39034 ft | 577 kts | 150° |
| 2026-05-04 18:57 | 34.58342 | -87.62504 | 39031 ft | 578 kts | 150° |
| 2026-05-04 18:57 | 34.51634 | -87.57110 | 39025 ft | 578 kts | 150° |
| 2026-05-04 18:58 | 34.44930 | -87.51732 | 38986 ft | 578 kts | 150° |
| 2026-05-04 18:58 | 34.38201 | -87.46321 | 39012 ft | 581 kts | 151° |
| 2026-05-04 18:59 | 34.31394 | -87.41022 | 39011 ft | 582 kts | 150° |
| 2026-05-04 18:59 | 34.24683 | -87.35537 | 39025 ft | 582 kts | 150° |
| 2026-05-04 19:00 | 34.17901 | -87.30217 | 39012 ft | 578 kts | 150° |
| 2026-05-04 19:00 | 34.11229 | -87.24843 | 39046 ft | 582 kts | 150° |
| 2026-05-04 19:01 | 34.04456 | -87.19503 | 39045 ft | 581 kts | 151° |
| 2026-05-04 19:01 | 33.97699 | -87.14118 | 39047 ft | 582 kts | 151° |
| 2026-05-04 19:02 | 33.90915 | -87.08781 | 39029 ft | 582 kts | 151° |
| 2026-05-04 19:02 | 33.84110 | -87.03401 | 39047 ft | 586 kts | 151° |
| 2026-05-04 19:03 | 33.77319 | -86.98062 | 39048 ft | 587 kts | 151° |
| 2026-05-04 19:03 | 33.70488 | -86.92691 | 39077 ft | 583 kts | 151° |
| 2026-05-04 19:04 | 33.63388 | -86.88339 | 39040 ft | 568 kts | 166° |
| 2026-05-04 19:04 | 33.55844 | -86.85506 | 39080 ft | 569 kts | 169° |
| 2026-05-04 19:05 | 33.48334 | -86.82325 | 39078 ft | 573 kts | 166° |
| 2026-05-04 19:05 | 33.40794 | -86.79334 | 39082 ft | 571 kts | 168° |
| 2026-05-04 19:06 | 33.33260 | -86.76263 | 39081 ft | 573 kts | 166° |
| 2026-05-04 19:06 | 33.25710 | -86.73212 | 39070 ft | 571 kts | 168° |
| 2026-05-04 19:07 | 33.18214 | -86.70204 | 39073 ft | 572 kts | 167° |
| 2026-05-04 19:07 | 33.10677 | -86.67152 | 39025 ft | 571 kts | 168° |
| 2026-05-04 19:08 | 33.03097 | -86.64129 | 39057 ft | 576 kts | 167° |
| 2026-05-04 19:08 | 32.95511 | -86.61065 | 39057 ft | 575 kts | 168° |
| 2026-05-04 19:09 | 32.87913 | -86.58042 | 39057 ft | 576 kts | 168° |
| 2026-05-04 19:09 | 32.80324 | -86.54995 | 39057 ft | 574 kts | 168° |
| 2026-05-04 19:10 | 32.72734 | -86.51981 | 39062 ft | 575 kts | 168° |
| 2026-05-04 19:10 | 32.65191 | -86.48969 | 39051 ft | 575 kts | 168° |
| 2026-05-04 19:11 | 32.57612 | -86.45965 | 39049 ft | 575 kts | 168° |
| 2026-05-04 19:11 | 32.50002 | -86.42943 | 39043 ft | 577 kts | 168° |
| 2026-05-04 19:12 | 32.39842 | -86.38922 | 39045 ft | 578 kts | 168° |
| 2026-05-04 19:13 | 32.32219 | -86.35910 | 39078 ft | 578 kts | 168° |
| 2026-05-04 19:13 | 32.24625 | -86.32702 | 39070 ft | 587 kts | 162° |
| 2026-05-04 19:14 | 32.17600 | -86.27563 | 39069 ft | 602 kts | 146° |
| 2026-05-04 19:14 | 32.11376 | -86.20884 | 39079 ft | 606 kts | 139° |
| 2026-05-04 19:15 | 32.05184 | -86.14213 | 39081 ft | 598 kts | 145° |
| 2026-05-04 19:15 | 31.98787 | -86.07944 | 39086 ft | 602 kts | 142° |
| 2026-05-04 19:16 | 31.92564 | -86.01302 | 39088 ft | 602 kts | 143° |
| 2026-05-04 19:16 | 31.86173 | -85.94958 | 39086 ft | 602 kts | 143° |
| 2026-05-04 19:17 | 31.79944 | -85.88442 | 39082 ft | 603 kts | 143° |
| 2026-05-04 19:17 | 31.73545 | -85.81990 | 39076 ft | 603 kts | 143° |
| 2026-05-04 19:18 | 31.67331 | -85.75455 | 39061 ft | 604 kts | 142° |
| 2026-05-04 19:18 | 31.60995 | -85.68999 | 39061 ft | 602 kts | 143° |
| 2026-05-04 19:19 | 31.54705 | -85.62485 | 39072 ft | 603 kts | 142° |
| 2026-05-04 19:19 | 31.48383 | -85.56012 | 39094 ft | 603 kts | 143° |
| 2026-05-04 19:20 | 31.42083 | -85.49547 | 39108 ft | 601 kts | 142° |
| 2026-05-04 19:20 | 31.35787 | -85.43105 | 39112 ft | 601 kts | 143° |
| 2026-05-04 19:21 | 31.29504 | -85.36692 | 39120 ft | 597 kts | 143° |
| 2026-05-04 19:21 | 31.23237 | -85.30300 | 39095 ft | 598 kts | 143° |
| 2026-05-04 19:22 | 31.16967 | -85.23924 | 39095 ft | 598 kts | 143° |
| 2026-05-04 19:22 | 31.10714 | -85.17566 | 39088 ft | 594 kts | 143° |
| 2026-05-04 19:23 | 31.04512 | -85.11287 | 39079 ft | 594 kts | 143° |
| 2026-05-04 19:23 | 30.98268 | -85.04959 | 39081 ft | 594 kts | 143° |
| 2026-05-04 19:24 | 30.92038 | -84.98672 | 39085 ft | 591 kts | 143° |
| 2026-05-04 19:24 | 30.85822 | -84.92401 | 39059 ft | 591 kts | 143° |
| 2026-05-04 19:25 | 30.79608 | -84.86146 | 39069 ft | 589 kts | 143° |
| 2026-05-04 19:25 | 30.73406 | -84.79918 | 39074 ft | 589 kts | 143° |
| 2026-05-04 19:26 | 30.67194 | -84.73699 | 39069 ft | 589 kts | 143° |
| 2026-05-04 19:26 | 30.61024 | -84.67527 | 39069 ft | 589 kts | 143° |
| 2026-05-04 19:27 | 30.54826 | -84.61342 | 39079 ft | 586 kts | 144° |
| 2026-05-04 19:27 | 30.48638 | -84.55177 | 39077 ft | 586 kts | 144° |
| 2026-05-04 19:28 | 30.42446 | -84.49013 | 39080 ft | 587 kts | 144° |
| 2026-05-04 19:28 | 30.36248 | -84.42860 | 39084 ft | 586 kts | 144° |
| 2026-05-04 19:29 | 30.30052 | -84.36719 | 39090 ft | 587 kts | 144° |
| 2026-05-04 19:29 | 30.23870 | -84.30576 | 39073 ft | 583 kts | 144° |
| 2026-05-04 19:30 | 30.17717 | -84.24493 | 39072 ft | 580 kts | 144° |
| 2026-05-04 19:30 | 30.11578 | -84.18421 | 39073 ft | 581 kts | 144° |
| 2026-05-04 19:31 | 30.05418 | -84.12346 | 39074 ft | 581 kts | 144° |
| 2026-05-04 19:31 | 29.99307 | -84.06324 | 39076 ft | 581 kts | 144° |
| 2026-05-04 19:32 | 29.93170 | -84.00289 | 39059 ft | 577 kts | 144° |
| 2026-05-04 19:32 | 29.87056 | -83.94288 | 39060 ft | 578 kts | 144° |
| 2026-05-04 19:33 | 29.80780 | -83.88563 | 39056 ft | 569 kts | 153° |
| 2026-05-04 19:33 | 29.73902 | -83.84194 | 39069 ft | 563 kts | 158° |
| 2026-05-04 19:34 | 29.67049 | -83.79750 | 39047 ft | 565 kts | 155° |
| 2026-05-04 19:34 | 29.63701 | -83.77518 | 38385 ft | 553 kts | 156° |
| 2026-05-04 19:34 | 29.60340 | -83.75416 | 37654 ft | 548 kts | 157° |
| 2026-05-04 19:34 | 29.56975 | -83.73324 | 36934 ft | 552 kts | 156° |
| 2026-05-04 19:35 | 29.53617 | -83.71140 | 36213 ft | 554 kts | 155° |
| 2026-05-04 19:35 | 29.50303 | -83.68951 | 35484 ft | 546 kts | 155° |
| 2026-05-04 19:35 | 29.47041 | -83.66864 | 34777 ft | 539 kts | 156° |
| 2026-05-04 19:35 | 29.43761 | -83.64807 | 34067 ft | 533 kts | 156° |
| 2026-05-04 19:36 | 29.40547 | -83.62753 | 33336 ft | 527 kts | 156° |
| 2026-05-04 19:36 | 29.37364 | -83.60686 | 32623 ft | 522 kts | 156° |
| 2026-05-04 19:36 | 29.34169 | -83.58816 | 31914 ft | 509 kts | 165° |
| 2026-05-04 19:36 | 29.30831 | -83.57631 | 31291 ft | 499 kts | 171° |
| 2026-05-04 19:37 | 29.27506 | -83.56538 | 30643 ft | 495 kts | 171° |
| 2026-05-04 19:37 | 29.24220 | -83.55425 | 29967 ft | 490 kts | 170° |
| 2026-05-04 19:37 | 29.20964 | -83.54300 | 29298 ft | 485 kts | 170° |
| 2026-05-04 19:37 | 29.17736 | -83.53205 | 28659 ft | 480 kts | 171° |
| 2026-05-04 19:38 | 29.14558 | -83.52143 | 28028 ft | 473 kts | 171° |
| 2026-05-04 19:38 | 29.11408 | -83.51084 | 27406 ft | 469 kts | 170° |
| 2026-05-04 19:38 | 29.08294 | -83.50025 | 26765 ft | 465 kts | 170° |
| 2026-05-04 19:38 | 29.05202 | -83.48978 | 26177 ft | 461 kts | 170° |
| 2026-05-04 19:39 | 29.02177 | -83.47962 | 25583 ft | 457 kts | 170° |
| 2026-05-04 19:39 | 28.99142 | -83.46941 | 24983 ft | 453 kts | 170° |
| 2026-05-04 19:39 | 28.96180 | -83.45721 | 24369 ft | 454 kts | 162° |
| 2026-05-04 19:39 | 28.93306 | -83.44219 | 23787 ft | 452 kts | 160° |
| 2026-05-04 19:40 | 28.90472 | -83.42699 | 23135 ft | 446 kts | 160° |
| 2026-05-04 19:40 | 28.87664 | -83.41249 | 22554 ft | 441 kts | 161° |
| 2026-05-04 19:40 | 28.84872 | -83.39840 | 21980 ft | 436 kts | 161° |
| 2026-05-04 19:40 | 28.82123 | -83.38424 | 21394 ft | 432 kts | 160° |
| 2026-05-04 19:41 | 28.79405 | -83.37002 | 20816 ft | 428 kts | 160° |
| 2026-05-04 19:41 | 28.76708 | -83.35606 | 20267 ft | 424 kts | 160° |
| 2026-05-04 19:41 | 28.74028 | -83.34235 | 19706 ft | 419 kts | 160° |
| 2026-05-04 19:41 | 28.71414 | -83.32891 | 19171 ft | 415 kts | 160° |
| 2026-05-04 19:42 | 28.68798 | -83.31539 | 18627 ft | 411 kts | 159° |
| 2026-05-04 19:42 | 28.66205 | -83.30203 | 17976 ft | 407 kts | 159° |
| 2026-05-04 19:42 | 28.63647 | -83.28889 | 17422 ft | 401 kts | 159° |
| 2026-05-04 19:42 | 28.61112 | -83.27587 | 16893 ft | 398 kts | 159° |
| 2026-05-04 19:43 | 28.58597 | -83.26294 | 16369 ft | 395 kts | 159° |
| 2026-05-04 19:43 | 28.56102 | -83.25012 | 15847 ft | 391 kts | 158° |
| 2026-05-04 19:43 | 28.53628 | -83.23742 | 15337 ft | 388 kts | 158° |
| 2026-05-04 19:43 | 28.51179 | -83.22486 | 14823 ft | 384 kts | 158° |
| 2026-05-04 19:44 | 28.48750 | -83.21241 | 14310 ft | 381 kts | 158° |
| 2026-05-04 19:44 | 28.46345 | -83.20008 | 13811 ft | 378 kts | 158° |
| 2026-05-04 19:44 | 28.43958 | -83.18786 | 13282 ft | 374 kts | 158° |
| 2026-05-04 19:44 | 28.41599 | -83.17577 | 12790 ft | 371 kts | 158° |
| 2026-05-04 19:45 | 28.39285 | -83.16392 | 12312 ft | 367 kts | 158° |
| 2026-05-04 19:45 | 28.36961 | -83.15216 | 11816 ft | 364 kts | 158° |
| 2026-05-04 19:45 | 28.34650 | -83.14075 | 11339 ft | 361 kts | 159° |
| 2026-05-04 19:45 | 28.32358 | -83.12941 | 10862 ft | 357 kts | 158° |
| 2026-05-04 19:46 | 28.30089 | -83.11807 | 10391 ft | 354 kts | 158° |
| 2026-05-04 19:46 | 28.27869 | -83.10592 | 9946 ft | 363 kts | 150° |
| 2026-05-04 19:46 | 28.25913 | -83.08782 | 9957 ft | 347 kts | 141° |
| 2026-05-04 19:46 | 28.24192 | -83.07061 | 9943 ft | 312 kts | 141° |
| 2026-05-04 19:47 | 28.22628 | -83.05534 | 9939 ft | 296 kts | 142° |
| 2026-05-04 19:47 | 28.21056 | -83.04007 | 9943 ft | 298 kts | 140° |
| 2026-05-04 19:47 | 28.19864 | -83.02086 | 9896 ft | 302 kts | 114° |
| 2026-05-04 19:47 | 28.19445 | -82.99746 | 9949 ft | 305 kts | 96° |
| 2026-05-04 19:48 | 28.19322 | -82.97338 | 9966 ft | 306 kts | 94° |
| 2026-05-04 19:48 | 28.19217 | -82.94929 | 9962 ft | 306 kts | 94° |
| 2026-05-04 19:48 | 28.19080 | -82.92524 | 9959 ft | 306 kts | 95° |
| 2026-05-04 19:48 | 28.18933 | -82.90117 | 9963 ft | 306 kts | 95° |
| 2026-05-04 19:49 | 28.18801 | -82.87702 | 9653 ft | 310 kts | 94° |
| 2026-05-04 19:49 | 28.18922 | -82.85281 | 9124 ft | 305 kts | 84° |
| 2026-05-04 19:49 | 28.19160 | -82.82916 | 8623 ft | 299 kts | 84° |
| 2026-05-04 19:49 | 28.19397 | -82.80602 | 8140 ft | 293 kts | 84° |
| 2026-05-04 19:50 | 28.19374 | -82.78349 | 7889 ft | 281 kts | 106° |
| 2026-05-04 19:50 | 28.18379 | -82.76554 | 7858 ft | 260 kts | 141° |
| 2026-05-04 19:50 | 28.16786 | -82.75854 | 7849 ft | 243 kts | 179° |
| 2026-05-04 19:50 | 28.15117 | -82.76104 | 7978 ft | 243 kts | 193° |
| 2026-05-04 19:51 | 28.13470 | -82.76510 | 7988 ft | 245 kts | 194° |
| 2026-05-04 19:51 | 28.11716 | -82.76953 | 7992 ft | 275 kts | 194° |
| 2026-05-04 19:51 | 28.09859 | -82.77420 | 7976 ft | 272 kts | 194° |
| 2026-05-04 19:51 | 28.07987 | -82.77892 | 7781 ft | 274 kts | 194° |
| 2026-05-04 19:52 | 28.06210 | -82.78345 | 7409 ft | 252 kts | 194° |
| 2026-05-04 19:52 | 28.04527 | -82.78772 | 7031 ft | 246 kts | 194° |
| 2026-05-04 19:52 | 28.02865 | -82.79195 | 6655 ft | 244 kts | 193° |
| 2026-05-04 19:52 | 28.01183 | -82.79443 | 6266 ft | 245 kts | 185° |
| 2026-05-04 19:53 | 27.99486 | -82.79568 | 5948 ft | 241 kts | 184° |
| 2026-05-04 19:53 | 27.97821 | -82.79703 | 5843 ft | 245 kts | 184° |
| 2026-05-04 19:53 | 27.96113 | -82.79853 | 5424 ft | 246 kts | 183° |
| 2026-05-04 19:53 | 27.94422 | -82.80029 | 5012 ft | 243 kts | 184° |
| 2026-05-04 19:54 | 27.92737 | -82.80224 | 4583 ft | 241 kts | 184° |
| 2026-05-04 19:54 | 27.91077 | -82.80424 | 4156 ft | 239 kts | 184° |
| 2026-05-04 19:54 | 27.89428 | -82.80627 | 3736 ft | 238 kts | 184° |
| 2026-05-04 19:54 | 27.87787 | -82.80831 | 3332 ft | 236 kts | 184° |
| 2026-05-04 19:55 | 27.86161 | -82.81038 | 2911 ft | 234 kts | 184° |
| 2026-05-04 19:55 | 27.84550 | -82.81078 | 2397 ft | 229 kts | 165° |
| 2026-05-04 19:55 | 27.83277 | -82.80150 | 1779 ft | 214 kts | 123° |
| 2026-05-04 19:55 | 27.82974 | -82.78676 | 1722 ft | 185 kts | 86° |
| 2026-05-04 19:56 | 27.83089 | -82.77194 | 1995 ft | 183 kts | 83° |
| 2026-05-04 19:56 | 27.83188 | -82.75833 | 1972 ft | 170 kts | 84° |
| 2026-05-04 19:56 | 27.83420 | -82.74568 | 1841 ft | 168 kts | 70° |
| 2026-05-04 19:56 | 27.83879 | -82.73321 | 1466 ft | 161 kts | 67° |
| 2026-05-04 19:57 | 27.84344 | -82.72312 | 1320 ft | 132 kts | 54° |
| 2026-05-04 19:57 | 27.84747 | -82.71831 | 1203 ft | 123 kts | 47° |
| 2026-05-04 19:57 | 27.85339 | -82.71188 | 1019 ft | 115 kts | 46° |
| 2026-05-04 19:57 | 27.85925 | -82.70571 | 847 ft | 115 kts | 45° |
| 2026-05-04 19:58 | 27.86509 | -82.69948 | 758 ft | 117 kts | 45° |
| 2026-05-04 19:58 | 27.87018 | -82.69238 | 760 ft | 116 kts | 59° |
| 2026-05-04 19:58 | 27.87481 | -82.68473 | 642 ft | 122 kts | 43° |
| 2026-05-04 19:58 | 27.88266 | -82.68382 | 545 ft | 129 kts | 349° |
| 2026-05-04 19:59 | 27.89154 | -82.68542 | 238 ft | 128 kts | 356° |
| 2026-05-04 19:59 | 27.90027 | -82.68682 | 48 ft | 125 kts | 354° |
| 2026-05-04 19:59 | 27.90732 | -82.68799 | 21 ft | 52 kts | 350° |
| 2026-05-04 19:59 | 27.90921 | -82.68838 | 15 ft | 8 kts | 318° |
| 2026-05-04 20:00 | 27.90900 | -82.68886 | 16 ft | 11 kts | 208° |
| 2026-05-04 20:00 | 27.90847 | -82.68925 | 17 ft | 4 kts | 221° |
| 2026-05-04 20:00 | 27.90839 | -82.68932 | 17 ft | 4 kts | 222° |
| 2026-05-04 20:00 | 27.90821 | -82.68950 | 17 ft | 4 kts | 217° |
| 2026-05-04 20:01 | 27.90769 | -82.68961 | 19 ft | 10 kts | 172° |
| 2026-05-04 20:01 | 27.90700 | -82.68949 | 17 ft | 10 kts | 170° |
| 2026-05-04 20:01 | 27.90635 | -82.68937 | 19 ft | 9 kts | 175° |
| 2026-05-04 20:01 | 27.90580 | -82.68957 | 17 ft | 9 kts | 227° |